Back to Top

Language: 

My Weather Underground Personal Weather Station Historical Data with Graphs...

Delerius Weather Station Historical Data
Daily Summary for October 29, 2017 Units:  Metric    English   Both
« Previous Day
Next Day »
Daily Weekly Monthly Yearly Custom
  High: Low: Average:
Temperature: 14.5 °C 4.1 °C 9.3 °C
Dew Point: 12.3 °C 1.3 °C 4.9 °C
Humidity: 88 % 60 % 75 %
Wind Speed: 33.8 km/h 0 km/h 9.7 km/h
Wind Gust: 64.4 km/h - -
Wind:- - WSW
Pressure: 1030 hPa 1014.8 hPa -
Precipitation: 0 mm    
Historical Graphs
 
 
Tabular Data for October 29, 2017
Time Temperature Dew Point Pressure Wind Wind Speed Wind Gust Humidity Rainfall Rate (Hourly) solar Conditions
00:04 14 °C 12.1 °C 1015.8 hPa WNW 32.2 km/h 48.3 km/h 88 % 0 mm 0 W/m2
00:09 14.1 °C 12.2 °C 1015.5 hPa WNW 24.1 km/h 37 km/h 88 % 0 mm 0 W/m2
00:14 14.1 °C 12.2 °C 1015.5 hPa WNW 30.6 km/h 49.9 km/h 88 % 0 mm 0 W/m2
00:19 14.1 °C 12.2 °C 1015.5 hPa West 22.5 km/h 37 km/h 88 % 0 mm 0 W/m2
00:24 14.1 °C 12.2 °C 1015.5 hPa West 24.1 km/h 38.6 km/h 88 % 0 mm 0 W/m2
00:29 14.1 °C 12.2 °C 1015.5 hPa West 22.5 km/h 38.6 km/h 88 % 0 mm 0 W/m2
00:34 14.1 °C 12.2 °C 1015.5 hPa West 24.1 km/h 37 km/h 88 % 0 mm 0 W/m2
00:39 14.1 °C 12.2 °C 1015.1 hPa West 27.4 km/h 38.6 km/h 88 % 0 mm 0 W/m2
00:44 14.2 °C 12.2 °C 1015.1 hPa West 29 km/h 59.5 km/h 88 % 0 mm 0 W/m2
00:49 14.2 °C 12.2 °C 1015.1 hPa West 24.1 km/h 40.2 km/h 88 % 0 mm 0 W/m2
00:54 14.2 °C 12.1 °C 1015.1 hPa West 24.1 km/h 40.2 km/h 87 % 0 mm 0 W/m2
00:59 14.3 °C 12.2 °C 1015.1 hPa West 30.6 km/h 49.9 km/h 87 % 0 mm 0 W/m2
01:04 14.3 °C 12.2 °C 1015.1 hPa WNW 32.2 km/h 64.4 km/h 87 % 0 mm 0 W/m2
01:09 14.4 °C 12.3 °C 1015.1 hPa WNW 27.4 km/h 41.8 km/h 87 % 0 mm 0 W/m2
01:14 14.4 °C 12.3 °C 1015.1 hPa WNW 30.6 km/h 45.1 km/h 87 % 0 mm 0 W/m2
01:19 14.4 °C 12.3 °C 1015.1 hPa WNW 33.8 km/h 51.5 km/h 87 % 0 mm 0 W/m2
01:24 14.4 °C 12.3 °C 1015.1 hPa WNW 29 km/h 43.5 km/h 87 % 0 mm 0 W/m2
01:29 14.4 °C 12.3 °C 1014.8 hPa WNW 29 km/h 48.3 km/h 87 % 0 mm 0 W/m2
01:34 14.4 °C 12.3 °C 1014.8 hPa WNW 29 km/h 41.8 km/h 87 % 0 mm 0 W/m2
01:39 14.4 °C 12.1 °C 1015.1 hPa WNW 27.4 km/h 45.1 km/h 86 % 0 mm 0 W/m2
01:44 14.5 °C 12.2 °C 1015.1 hPa WNW 25.7 km/h 40.2 km/h 86 % 0 mm 0 W/m2
01:49 14.5 °C 12.2 °C 1015.1 hPa WNW 29 km/h 45.1 km/h 86 % 0 mm 0 W/m2
01:54 14.5 °C 12.2 °C 1015.1 hPa WNW 30.6 km/h 49.9 km/h 86 % 0 mm 0 W/m2
01:00 14.4 °C 12.1 °C 1015.1 hPa WNW 27.4 km/h 54.7 km/h 86 % 0 mm 0 W/m2
01:05 14.4 °C 12.1 °C 1014.8 hPa WNW 24.1 km/h 40.2 km/h 86 % 0 mm 0 W/m2
01:10 14.3 °C 11.8 °C 1014.8 hPa WNW 27.4 km/h 41.8 km/h 85 % 0 mm 0 W/m2
01:15 14.3 °C 11.6 °C 1015.1 hPa WNW 20.9 km/h 35.4 km/h 84 % 0 mm 0 W/m2
01:20 14.3 °C 11.6 °C 1015.5 hPa NW 20.9 km/h 35.4 km/h 84 % 0 mm 0 W/m2
01:25 14.3 °C 11.6 °C 1015.5 hPa WNW 17.7 km/h 29 km/h 84 % 0 mm 0 W/m2
01:30 14.3 °C 11.8 °C 1015.5 hPa NW 14.5 km/h 25.7 km/h 85 % 0 mm 0 W/m2
01:35 14.2 °C 11.7 °C 1015.5 hPa WNW 20.9 km/h 38.6 km/h 85 % 0 mm 0 W/m2
01:40 14.2 °C 11.9 °C 1015.5 hPa WNW 19.3 km/h 32.2 km/h 86 % 0 mm 0 W/m2
01:45 14.2 °C 11.9 °C 1015.5 hPa WNW 20.9 km/h 33.8 km/h 86 % 0 mm 0 W/m2
01:50 14.1 °C 11.8 °C 1015.5 hPa WNW 25.7 km/h 40.2 km/h 86 % 0 mm 0 W/m2
01:55 13.9 °C 11.4 °C 1015.5 hPa WNW 25.7 km/h 41.8 km/h 85 % 0 mm 0 W/m2
02:00 13.8 °C 11.2 °C 1015.5 hPa WNW 22.5 km/h 40.2 km/h 84 % 0 mm 0 W/m2
02:05 13.7 °C 10.9 °C 1015.8 hPa NW 27.4 km/h 56.3 km/h 83 % 0 mm 0 W/m2
02:10 13.7 °C 10.7 °C 1015.8 hPa WNW 25.7 km/h 41.8 km/h 82 % 0 mm 0 W/m2
02:15 13.6 °C 10.6 °C 1016.1 hPa NW 24.1 km/h 37 km/h 82 % 0 mm 0 W/m2
02:20 13.5 °C 10.5 °C 1016.1 hPa WNW 19.3 km/h 35.4 km/h 82 % 0 mm 0 W/m2
02:25 13.5 °C 10.5 °C 1016.1 hPa WNW 22.5 km/h 35.4 km/h 82 % 0 mm 0 W/m2
02:30 13.4 °C 10.4 °C 1016.1 hPa WNW 22.5 km/h 38.6 km/h 82 % 0 mm 0 W/m2
02:35 13.4 °C 10.4 °C 1016.5 hPa NW 19.3 km/h 30.6 km/h 82 % 0 mm 0 W/m2
02:40 13.4 °C 10.4 °C 1016.5 hPa NW 14.5 km/h 29 km/h 82 % 0 mm 0 W/m2
02:45 13.3 °C 10.1 °C 1016.1 hPa NW 20.9 km/h 32.2 km/h 81 % 0 mm 0 W/m2
09:33 9.7 °C 4.5 °C 1023.9 hPa NNW 14.5 km/h 14.5 km/h 70 % 0 mm 81 W/m2
09:34 9.6 °C 4.4 °C 1023.9 hPa North 9.7 km/h 14.5 km/h 70 % 0 mm 77 W/m2
09:39 9.6 °C 4.4 °C 1023.9 hPa North 9.7 km/h 14.5 km/h 70 % 0 mm 91 W/m2
09:44 9.7 °C 4.7 °C 1023.9 hPa NNW 9.7 km/h 16.1 km/h 71 % 0 mm 130 W/m2
09:49 9.8 °C 4.8 °C 1024.3 hPa NNW 8 km/h 17.7 km/h 71 % 0 mm 128 W/m2
09:54 9.8 °C 4.6 °C 1024.3 hPa North 9.7 km/h 16.1 km/h 70 % 0 mm 274 W/m2
09:55 9.8 °C 4.6 °C 1024.3 hPa North 9.7 km/h 16.1 km/h 70 % 0 mm 318 W/m2
10:00 10 °C 4.8 °C 1024.3 hPa North 6.4 km/h 19.3 km/h 70 % 0 mm 341 W/m2
10:05 10.2 °C 4.9 °C 1024.3 hPa North 4.8 km/h 14.5 km/h 70 % 0 mm 330 W/m2
10:10 10.4 °C 4.7 °C 1024.3 hPa North 11.3 km/h 19.3 km/h 68 % 0 mm 355 W/m2
10:16 10.6 °C 4.7 °C 1024.3 hPa NNW 12.9 km/h 19.3 km/h 67 % 0 mm 311 W/m2
10:20 10.6 °C 4.5 °C 1024.6 hPa North 12.9 km/h 20.9 km/h 66 % 0 mm 364 W/m2
10:25 10.7 °C 4.4 °C 1024.6 hPa North 9.7 km/h 17.7 km/h 65 % 0 mm 373 W/m2
10:30 10.8 °C 4.3 °C 1024.6 hPa North 11.3 km/h 24.1 km/h 64 % 0 mm 369 W/m2
10:36 10.8 °C 4.3 °C 1024.6 hPa NNW 8 km/h 16.1 km/h 64 % 0 mm 385 W/m2
10:41 10.9 °C 4.3 °C 1024.6 hPa NNW 9.7 km/h 19.3 km/h 64 % 0 mm 390 W/m2
10:46 10.9 °C 4.3 °C 1024.9 hPa NNE 6.4 km/h 12.9 km/h 64 % 0 mm 394 W/m2
10:51 11 °C 4.4 °C 1024.6 hPa North 8 km/h 20.9 km/h 64 % 0 mm 397 W/m2
10:52 11.1 °C 4.6 °C 1024.6 hPa North 8 km/h 20.9 km/h 64 % 0 mm 403 W/m2
10:57 11.3 °C 4.7 °C 1024.9 hPa NNW 3.2 km/h 12.9 km/h 64 % 0 mm 406 W/m2
11:02 11.2 °C 4.2 °C 1024.9 hPa NNE 16.1 km/h 25.7 km/h 62 % 0 mm 410 W/m2
11:07 11.1 °C 4.1 °C 1024.9 hPa NNE 14.5 km/h 30.6 km/h 62 % 0 mm 417 W/m2
11:12 10.9 °C 4.1 °C 1024.9 hPa North 12.9 km/h 22.5 km/h 63 % 0 mm 418 W/m2
11:17 11 °C 4.7 °C 1024.9 hPa NNW 6.4 km/h 14.5 km/h 65 % 0 mm 424 W/m2
11:22 11.2 °C 4.6 °C 1024.9 hPa NNW 12.9 km/h 24.1 km/h 64 % 0 mm 471 W/m2
11:27 11.2 °C 4.4 °C 1024.9 hPa North 11.3 km/h 17.7 km/h 63 % 0 mm 197 W/m2
11:32 11 °C 4.2 °C 1024.9 hPa NNE 12.9 km/h 22.5 km/h 63 % 0 mm 443 W/m2
11:37 10.9 °C 3.9 °C 1025.3 hPa North 12.9 km/h 24.1 km/h 62 % 0 mm 432 W/m2
11:42 11 °C 4.2 °C 1024.9 hPa North 9.7 km/h 17.7 km/h 63 % 0 mm 436 W/m2
11:47 11.1 °C 4.1 °C 1025.3 hPa North 11.3 km/h 19.3 km/h 62 % 0 mm 427 W/m2
11:52 11.1 °C 3.8 °C 1025.3 hPa NNE 12.9 km/h 22.5 km/h 61 % 0 mm 438 W/m2
11:57 11.1 °C 4.1 °C 1025.3 hPa NNW 9.7 km/h 24.1 km/h 62 % 0 mm 429 W/m2
12:02 11.1 °C 3.8 °C 1025.3 hPa NNW 9.7 km/h 22.5 km/h 61 % 0 mm 427 W/m2
12:07 11.3 °C 4.3 °C 1025.3 hPa North 8 km/h 16.1 km/h 62 % 0 mm 431 W/m2
12:12 11.3 °C 4.1 °C 1025.3 hPa NNE 11.3 km/h 20.9 km/h 61 % 0 mm 434 W/m2
12:17 11.3 °C 4.3 °C 1025.3 hPa North 9.7 km/h 19.3 km/h 62 % 0 mm 439 W/m2
12:22 11.4 °C 4.2 °C 1025.3 hPa NNE 9.7 km/h 14.5 km/h 61 % 0 mm 459 W/m2
12:27 11.3 °C 3.8 °C 1025.3 hPa NNE 14.5 km/h 22.5 km/h 60 % 0 mm 100 W/m2
12:32 11 °C 3.8 °C 1025.3 hPa North 8 km/h 19.3 km/h 61 % 0 mm 93 W/m2
12:37 10.9 °C 3.9 °C 1025.3 hPa NNE 11.3 km/h 20.9 km/h 62 % 0 mm 427 W/m2
12:42 11 °C 4.2 °C 1025.3 hPa NNW 11.3 km/h 17.7 km/h 63 % 0 mm 431 W/m2
12:48 11.2 °C 4.4 °C 1025.3 hPa NNE 11.3 km/h 20.9 km/h 63 % 0 mm 504 W/m2
12:53 11.3 °C 4.3 °C 1025.3 hPa North 9.7 km/h 22.5 km/h 62 % 0 mm 76 W/m2
12:58 11 °C 3.8 °C 1025.3 hPa NNE 12.9 km/h 20.9 km/h 61 % 0 mm 98 W/m2
13:03 10.8 °C 4.1 °C 1025.3 hPa NNE 12.9 km/h 19.3 km/h 63 % 0 mm 390 W/m2
13:08 10.9 °C 4.3 °C 1025.3 hPa NNW 3.2 km/h 11.3 km/h 64 % 0 mm 378 W/m2
13:13 11.1 °C 4.1 °C 1025.6 hPa NNE 11.3 km/h 19.3 km/h 62 % 0 mm 371 W/m2
13:18 11.3 °C 4.5 °C 1025.6 hPa NW 8 km/h 12.9 km/h 63 % 0 mm 367 W/m2
13:23 11.4 °C 4.2 °C 1025.6 hPa NNW 8 km/h 14.5 km/h 61 % 0 mm 367 W/m2
13:28 11.3 °C 3.8 °C 1025.6 hPa NNE 12.9 km/h 17.7 km/h 60 % 0 mm 359 W/m2
13:33 11.2 °C 3.9 °C 1025.6 hPa North 9.7 km/h 16.1 km/h 61 % 0 mm 357 W/m2
13:38 11.2 °C 3.9 °C 1025.6 hPa North 12.9 km/h 17.7 km/h 61 % 0 mm 357 W/m2
13:43 11.2 °C 4.2 °C 1025.6 hPa North 11.3 km/h 17.7 km/h 62 % 0 mm 383 W/m2
13:46 11.3 °C 4.3 °C 1025.6 hPa NNE 4.8 km/h 11.3 km/h 62 % 0 mm 410 W/m2
13:51 11.5 °C 4.4 °C 1025.6 hPa North 11.3 km/h 17.7 km/h 62 % 0 mm 390 W/m2
13:56 11.6 °C 4.3 °C 1025.6 hPa ESE 1.6 km/h 6.4 km/h 61 % 0 mm 374 W/m2
14:01 11.8 °C 4.3 °C 1026 hPa NNE 9.7 km/h 20.9 km/h 60 % 0 mm 318 W/m2
14:19 11.2 °C 4.2 °C 1026 hPa NE 16.1 km/h 30.6 km/h 62 % 0 mm 288 W/m2
14:25 10.9 °C 4.1 °C 1026 hPa NNE 8 km/h 19.3 km/h 63 % 0 mm 258 W/m2
14:31 11 °C 4.4 °C 1026 hPa NNE 6.4 km/h 17.7 km/h 64 % 0 mm 257 W/m2
14:37 11.1 °C 4.6 °C 1026 hPa North 9.7 km/h 16.1 km/h 64 % 0 mm 281 W/m2
14:42 11.1 °C 4.1 °C 1026 hPa North 12.9 km/h 20.9 km/h 62 % 0 mm 229 W/m2
14:48 10.9 °C 4.1 °C 1026 hPa NNE 8 km/h 19.3 km/h 63 % 0 mm 47 W/m2
14:53 10.7 °C 4.2 °C 1026.3 hPa NNE 9.7 km/h 19.3 km/h 64 % 0 mm 199 W/m2
14:58 10.6 °C 4.3 °C 1026.3 hPa North 6.4 km/h 11.3 km/h 65 % 0 mm 121 W/m2
15:03 10.5 °C 4.2 °C 1026.3 hPa NNW 9.7 km/h 17.7 km/h 65 % 0 mm 179 W/m2
15:08 10.3 °C 4 °C 1026.3 hPa NNW 6.4 km/h 12.9 km/h 65 % 0 mm 148 W/m2
15:09 10.3 °C 4 °C 1026.3 hPa NNW 8 km/h 14.5 km/h 65 % 0 mm 148 W/m2
15:14 10.2 °C 3.9 °C 1026.3 hPa North 6.4 km/h 12.9 km/h 65 % 0 mm 35 W/m2
15:19 10.1 °C 4.1 °C 1026.6 hPa NNW 1.6 km/h 4.8 km/h 66 % 0 mm 40 W/m2
15:24 9.9 °C 3.8 °C 1026.3 hPa NNE 12.9 km/h 17.7 km/h 66 % 0 mm 26 W/m2
15:31 9.7 °C 3.7 °C 1026.3 hPa North 6.4 km/h 14.5 km/h 66 % 0 mm 28 W/m2
15:36 9.7 °C 3.9 °C 1026.6 hPa Calm   1.6 km/h 67 % 0 mm 32 W/m2
15:41 9.6 °C 3.6 °C 1026.6 hPa North 3.2 km/h 9.7 km/h 66 % 0 mm 37 W/m2
15:47 9.5 °C 3.7 °C 1026.6 hPa Calm   3.2 km/h 67 % 0 mm 46 W/m2
15:52 9.5 °C 3.9 °C 1026.6 hPa NNE 1.6 km/h 9.7 km/h 68 % 0 mm 53 W/m2
15:57 9.4 °C 3.8 °C 1026.6 hPa North 4.8 km/h 11.3 km/h 68 % 0 mm 47 W/m2
16:03 9.4 °C 3.8 °C 1026.6 hPa NNE 8 km/h 11.3 km/h 68 % 0 mm 39 W/m2
16:08 9.3 °C 3.9 °C 1027 hPa NNE 3.2 km/h 6.4 km/h 69 % 0 mm 32 W/m2
16:13 9.2 °C 3.8 °C 1027 hPa NNE 4.8 km/h 14.5 km/h 69 % 0 mm 26 W/m2
16:18 9.1 °C 3.5 °C 1027 hPa NNE 6.4 km/h 12.9 km/h 68 % 0 mm 25 W/m2
16:20 9.1 °C 3.5 °C 1027 hPa North 8 km/h 12.9 km/h 68 % 0 mm 23 W/m2
16:25 9 °C 3.6 °C 1027 hPa NNE 3.2 km/h 8 km/h 69 % 0 mm 19 W/m2
16:30 8.9 °C 3.5 °C 1027 hPa NNW 3.2 km/h 11.3 km/h 69 % 0 mm 14 W/m2
16:35 8.8 °C 3.4 °C 1027 hPa North 4.8 km/h 12.9 km/h 69 % 0 mm 11 W/m2
16:40 8.7 °C 3.6 °C 1027 hPa NNW 1.6 km/h 11.3 km/h 70 % 0 mm 7 W/m2
16:45 8.6 °C 3.4 °C 1027 hPa North 1.6 km/h 6.4 km/h 70 % 0 mm 5 W/m2
16:50 8.4 °C 3.2 °C 1027 hPa North 6.4 km/h 11.3 km/h 70 % 0 mm 0 W/m2
16:55 8.3 °C 3.3 °C 1027 hPa North 4.8 km/h 11.3 km/h 71 % 0 mm 0 W/m2
16:56 8.3 °C 3.3 °C 1027 hPa NNW 3.2 km/h 8 km/h 71 % 0 mm 0 W/m2
17:01 8.2 °C 3.3 °C 1027.3 hPa NNE 1.6 km/h 8 km/h 71 % 0 mm 0 W/m2
17:11 8.1 °C 3.3 °C 1027.3 hPa Calm   1.6 km/h 72 % 0 mm 0 W/m2
17:16 7.9 °C 3.2 °C 1027.3 hPa North 1.6 km/h 8 km/h 72 % 0 mm 0 W/m2
17:21 7.8 °C 3.3 °C 1027.7 hPa North 1.6 km/h 6.4 km/h 73 % 0 mm 0 W/m2
17:26 7.7 °C 3.2 °C 1027.7 hPa NNW 1.6 km/h 4.8 km/h 73 % 0 mm 0 W/m2
17:31 7.7 °C 3.2 °C 1027.7 hPa Calm   1.6 km/h 73 % 0 mm 0 W/m2
17:36 7.6 °C 3.1 °C 1028 hPa Calm     73 % 0 mm 0 W/m2
17:41 7.4 °C 3.1 °C 1028 hPa NNW 1.6 km/h 3.2 km/h 74 % 0 mm 0 W/m2
17:46 7.3 °C 2.9 °C 1028 hPa Calm   1.6 km/h 74 % 0 mm 0 W/m2
17:51 7.2 °C 3.1 °C 1028 hPa NNW 1.6 km/h 3.2 km/h 75 % 0 mm 0 W/m2
17:56 7 °C 2.9 °C 1028 hPa Calm   1.6 km/h 75 % 0 mm 0 W/m2
18:01 6.8 °C 2.7 °C 1028 hPa NNW 1.6 km/h 3.2 km/h 75 % 0 mm 0 W/m2
18:06 6.6 °C 2.7 °C 1028.3 hPa NW 1.6 km/h 3.2 km/h 76 % 0 mm 0 W/m2
18:11 6.4 °C 2.7 °C 1028.3 hPa NW 1.6 km/h 3.2 km/h 77 % 0 mm 0 W/m2
18:16 6.3 °C 2.6 °C 1028.3 hPa NW 1.6 km/h 3.2 km/h 77 % 0 mm 0 W/m2
18:21 6.2 °C 2.7 °C 1028.3 hPa NW 1.6 km/h 8 km/h 78 % 0 mm 0 W/m2
18:26 6.2 °C 2.7 °C 1028.3 hPa NW 1.6 km/h 3.2 km/h 78 % 0 mm 0 W/m2
18:31 6.1 °C 2.6 °C 1028.3 hPa NW 1.6 km/h 4.8 km/h 78 % 0 mm 0 W/m2
18:36 6.1 °C 2.7 °C 1028.3 hPa Calm   1.6 km/h 79 % 0 mm 0 W/m2
18:41 5.9 °C 2.3 °C 1028.3 hPa NW 1.6 km/h 6.4 km/h 78 % 0 mm 0 W/m2
18:46 5.9 °C 2.6 °C 1028.3 hPa NW 3.2 km/h 8 km/h 79 % 0 mm 0 W/m2
18:51 5.8 °C 2.4 °C 1028.3 hPa NW 3.2 km/h 8 km/h 79 % 0 mm 0 W/m2
18:56 5.8 °C 2.4 °C 1028.3 hPa NW 3.2 km/h 6.4 km/h 79 % 0 mm 0 W/m2
19:01 5.7 °C 2.3 °C 1028.7 hPa NW 1.6 km/h 6.4 km/h 79 % 0 mm 0 W/m2
19:06 5.7 °C 2.3 °C 1028.7 hPa NW 4.8 km/h 8 km/h 79 % 0 mm 0 W/m2
19:11 5.6 °C 2.4 °C 1028.7 hPa NW 3.2 km/h 6.4 km/h 80 % 0 mm 0 W/m2
19:16 5.6 °C 2.4 °C 1028.7 hPa NW 1.6 km/h 3.2 km/h 80 % 0 mm 0 W/m2
19:21 5.6 °C 2.4 °C 1028.7 hPa NW 4.8 km/h 8 km/h 80 % 0 mm 0 W/m2
19:26 5.6 °C 2.4 °C 1028.7 hPa NW 3.2 km/h 8 km/h 80 % 0 mm 0 W/m2
19:31 5.6 °C 2.2 °C 1028.7 hPa NW 3.2 km/h 8 km/h 79 % 0 mm 0 W/m2
19:36 5.6 °C 2.4 °C 1028.7 hPa WNW 3.2 km/h 8 km/h 80 % 0 mm 0 W/m2
19:41 5.6 °C 2.2 °C 1029 hPa WNW 3.2 km/h 9.7 km/h 79 % 0 mm 0 W/m2
19:46 5.5 °C 2.2 °C 1029 hPa NW 3.2 km/h 6.4 km/h 79 % 0 mm 0 W/m2
19:51 5.5 °C 2.3 °C 1029 hPa NW 6.4 km/h 9.7 km/h 80 % 0 mm 0 W/m2
19:56 5.5 °C 2.2 °C 1029 hPa NW 3.2 km/h 9.7 km/h 79 % 0 mm 0 W/m2
20:01 5.5 °C 2.2 °C 1029 hPa NW 1.6 km/h 8 km/h 79 % 0 mm 0 W/m2
20:06 5.5 °C 2.2 °C 1029 hPa NW 3.2 km/h 8 km/h 79 % 0 mm 0 W/m2
20:11 5.4 °C 2.1 °C 1029.3 hPa NW 3.2 km/h 8 km/h 79 % 0 mm 0 W/m2
20:16 5.3 °C 2.1 °C 1029.3 hPa NW 1.6 km/h 8 km/h 80 % 0 mm 0 W/m2
20:22 5.3 °C 2.1 °C 1029.3 hPa NW 3.2 km/h 9.7 km/h 80 % 0 mm 0 W/m2
20:27 5.2 °C 2.1 °C 1029.3 hPa NW 3.2 km/h 8 km/h 80 % 0 mm 0 W/m2
20:32 5.2 °C 2.1 °C 1029.3 hPa West 3.2 km/h 6.4 km/h 80 % 0 mm 0 W/m2
20:37 5.1 °C 1.9 °C 1029.3 hPa WNW 3.2 km/h 9.7 km/h 80 % 0 mm 0 W/m2
20:42 5 °C 1.8 °C 1029.3 hPa NW 3.2 km/h 8 km/h 80 % 0 mm 0 W/m2
20:47 5 °C 2 °C 1029.3 hPa NW 3.2 km/h 8 km/h 81 % 0 mm 0 W/m2
20:52 5.1 °C 2.1 °C 1029.3 hPa NW 1.6 km/h 6.4 km/h 81 % 0 mm 0 W/m2
20:57 5.1 °C 2.1 °C 1029.3 hPa WNW 3.2 km/h 6.4 km/h 81 % 0 mm 0 W/m2
21:02 5.1 °C 2.1 °C 1029.7 hPa WNW 1.6 km/h 6.4 km/h 81 % 0 mm 0 W/m2
21:07 5.1 °C 1.9 °C 1029.7 hPa NW 1.6 km/h 8 km/h 80 % 0 mm 0 W/m2
21:12 5.1 °C 2.1 °C 1029.3 hPa NW 1.6 km/h 4.8 km/h 81 % 0 mm 0 W/m2
21:17 5 °C 2 °C 1029.3 hPa NW 3.2 km/h 6.4 km/h 81 % 0 mm 0 W/m2
21:22 4.9 °C 1.9 °C 1029.7 hPa NW 1.6 km/h 3.2 km/h 81 % 0 mm 0 W/m2
21:27 4.9 °C 1.9 °C 1029.7 hPa Calm   3.2 km/h 81 % 0 mm 0 W/m2
21:32 4.8 °C 1.8 °C 1029.7 hPa NW 3.2 km/h 8 km/h 81 % 0 mm 0 W/m2
21:37 4.8 °C 1.8 °C 1029.7 hPa NW 3.2 km/h 9.7 km/h 81 % 0 mm 0 W/m2
21:42 4.8 °C 1.8 °C 1029.7 hPa NW 3.2 km/h 9.7 km/h 81 % 0 mm 0 W/m2
21:47 4.8 °C 1.8 °C 1029.7 hPa NW 4.8 km/h 8 km/h 81 % 0 mm 0 W/m2
21:52 4.8 °C 1.8 °C 1029.7 hPa NW 4.8 km/h 8 km/h 81 % 0 mm 0 W/m2
21:57 4.8 °C 1.8 °C 1029.7 hPa NW 4.8 km/h 11.3 km/h 81 % 0 mm 0 W/m2
22:02 4.8 °C 1.8 °C 1029.7 hPa NW 4.8 km/h 9.7 km/h 81 % 0 mm 0 W/m2
22:07 4.8 °C 1.8 °C 1029.7 hPa NW 1.6 km/h 4.8 km/h 81 % 0 mm 0 W/m2
22:12 4.8 °C 1.8 °C 1030 hPa WNW 1.6 km/h 6.4 km/h 81 % 0 mm 0 W/m2
22:22 4.6 °C 1.6 °C 1029.7 hPa NW 1.6 km/h 6.4 km/h 81 % 0 mm 0 W/m2
22:27 4.6 °C 1.6 °C 1030 hPa NW 1.6 km/h 6.4 km/h 81 % 0 mm 0 W/m2
22:32 4.5 °C 1.5 °C 1030 hPa NW 1.6 km/h 6.4 km/h 81 % 0 mm 0 W/m2
22:37 4.5 °C 1.5 °C 1030 hPa NW 1.6 km/h 6.4 km/h 81 % 0 mm 0 W/m2
22:42 4.4 °C 1.4 °C 1030 hPa Calm   1.6 km/h 81 % 0 mm 0 W/m2
22:47 4.3 °C 1.3 °C 1030 hPa Calm   3.2 km/h 81 % 0 mm 0 W/m2
22:52 4.2 °C 1.4 °C 1030 hPa Calm   1.6 km/h 82 % 0 mm 0 W/m2
22:57 4.1 °C 1.3 °C 1030 hPa NW 1.6 km/h 4.8 km/h 82 % 0 mm 0 W/m2
23:02 4.1 °C 1.4 °C 1030 hPa NW 1.6 km/h 3.2 km/h 83 % 0 mm 0 W/m2
23:07 4.1 °C 1.4 °C 1030 hPa NW 3.2 km/h 8 km/h 83 % 0 mm 0 W/m2
23:12 4.1 °C 1.6 °C 1030 hPa NW 1.6 km/h 3.2 km/h 84 % 0 mm 0 W/m2
23:17 4.1 °C 1.6 °C 1030 hPa Calm   3.2 km/h 84 % 0 mm 0 W/m2
23:22 4.1 °C 1.6 °C 1030 hPa NW 1.6 km/h 6.4 km/h 84 % 0 mm 0 W/m2
23:27 4.1 °C 1.6 °C 1030 hPa NW 4.8 km/h 9.7 km/h 84 % 0 mm 0 W/m2
23:32 4.2 °C 1.7 °C 1030 hPa NW 4.8 km/h 8 km/h 84 % 0 mm 0 W/m2
23:37 4.2 °C 1.7 °C 1030 hPa NW 4.8 km/h 9.7 km/h 84 % 0 mm 0 W/m2
23:39 4.2 °C 1.7 °C 1030 hPa NW 4.8 km/h 9.7 km/h 84 % 0 mm 0 W/m2
23:44 4.3 °C 1.8 °C 1030 hPa NW 4.8 km/h 9.7 km/h 84 % 0 mm 0 W/m2
23:49 4.3 °C 1.7 °C 1030 hPa NW 4.8 km/h 8 km/h 83 % 0 mm 0 W/m2
23:54 4.3 °C 1.7 °C 1030 hPa NW 4.8 km/h 9.7 km/h 83 % 0 mm 0 W/m2
23:59 4.4 °C 1.8 °C 1030 hPa NW 4.8 km/h 11.3 km/h 83 % 0 mm 0 W/m2
Delerius-Weather
Compliments of Weather Underground - 2 mb

Data updates at regular intervals.